Time;durP1;ratioP1;P1;durP2;ratioP2;P2;SDS_P1;SDS_P2;PMS_P1;PMS_P2;Temp;Humidity;BMP_temperature;BMP_pressure;BME280_temperature;BME280_humidity;BME280_pressure;Samples;Min_cycle;Max_cycle;Signal;HPM_P1;HPM_P2
2023/05/30 00:03:37;;;;;;;16.23;15.17;;;11.10;99.10;;;;;;2613596;54;20122;-70
2023/05/30 00:09:26;;;;;;;16.17;14.70;;;11.10;99.90;;;;;;2613909;54;20387;-70
2023/05/30 00:15:16;;;;;;;19.43;14.57;;;10.90;99.90;;;;;;2612483;54;20166;-70
2023/05/30 00:21:09;;;;;;;15.40;14.33;;;10.80;99.90;;;;;;2614039;54;20371;-70
2023/05/30 00:26:57;;;;;;;15.60;14.07;;;10.80;99.90;;;;;;2612851;54;20418;-71
2023/05/30 00:32:45;;;;;;;15.33;13.00;;;10.70;99.90;;;;;;2614520;54;20691;-70
2023/05/30 00:38:32;;;;;;;14.20;13.40;;;10.50;99.90;;;;;;2614996;39;20536;-70
2023/05/30 00:44:20;;;;;;;14.43;13.33;;;10.40;99.90;;;;;;2615398;54;20652;-70
2023/05/30 00:50:08;;;;;;;16.33;13.40;;;10.40;99.90;;;;;;2614565;54;20150;-69
2023/05/30 00:55:56;;;;;;;14.33;13.13;;;10.20;99.90;;;;;;2613212;54;20411;-71
2023/05/30 01:01:43;;;;;;;13.07;11.70;;;10.10;99.90;;;;;;2613838;54;20134;-68
2023/05/30 01:07:33;;;;;;;15.40;12.60;;;10.10;99.90;;;;;;2613151;54;20133;-70
2023/05/30 01:32:43;;;;;;;12.27;11.23;;;9.70;99.90;;;;;;2613050;54;20897;-70
2023/05/30 01:38:31;;;;;;;15.30;11.23;;;9.60;99.90;;;;;;2614889;46;20445;-71
2023/05/30 01:48:49;;;;;;;22.07;12.10;;;9.50;99.90;;;;;;2612205;54;20638;-71
2023/05/30 01:51:53;;;;;;;12.47;11.00;;;9.50;99.90;;;;;;2612840;54;20495;-71
2023/05/30 01:54:20;;;;;;;12.60;9.80;;;9.30;99.90;;;;;;2611802;54;20431;-71
2023/05/30 02:00:10;;;;;;;21.30;10.47;;;9.20;99.90;;;;;;2612263;54;20411;-71
2023/05/30 02:05:59;;;;;;;14.77;11.60;;;9.20;99.90;;;;;;2611999;54;20378;-71
2023/05/30 02:11:46;;;;;;;13.07;10.00;;;9.20;99.90;;;;;;2612119;54;20371;-71
2023/05/30 02:17:33;;;;;;;12.83;10.33;;;9.10;99.90;;;;;;2612995;54;20711;-71
2023/05/30 02:23:21;;;;;;;10.10;9.10;;;9.10;99.90;;;;;;2614025;39;20789;-72
2023/05/30 02:29:09;;;;;;;10.37;9.40;;;9.00;99.90;;;;;;2614317;54;20414;-73
2023/05/30 02:34:56;;;;;;;9.97;9.07;;;9.00;99.90;;;;;;2615159;54;20708;-73
2023/05/30 02:40:44;;;;;;;11.40;9.67;;;8.90;99.90;;;;;;2614086;54;20154;-73
2023/05/30 02:46:33;;;;;;;29.43;9.70;;;9.00;99.90;;;;;;2614327;54;20198;-74
2023/05/30 02:52:21;;;;;;;11.07;9.47;;;9.00;99.90;;;;;;2613094;54;20403;-74
2023/05/30 02:58:11;;;;;;;10.50;9.23;;;9.20;99.90;;;;;;2613712;54;20897;-74
2023/05/30 03:03:59;;;;;;;13.13;9.40;;;9.10;99.90;;;;;;2612226;54;20395;-73
2023/05/30 03:09:47;;;;;;;12.57;8.80;;;9.20;99.90;;;;;;2613361;54;20126;-74
2023/05/30 03:15:35;;;;;;;13.73;10.10;;;9.30;99.90;;;;;;2613097;54;20142;-74
2023/05/30 03:21:23;;;;;;;11.60;9.73;;;9.40;99.90;;;;;;2614169;39;20559;-74
2023/05/30 03:37:37;;;;;;;11.53;9.57;;;9.70;99.90;;;;;;2611718;54;20496;-72
2023/05/30 03:43:24;;;;;;;18.17;10.87;;;9.80;99.90;;;;;;2612312;54;20135;-73
2023/05/30 03:49:11;;;;;;;26.33;11.00;;;9.80;99.90;;;;;;2611944;54;20950;-74
2023/05/30 03:54:58;;;;;;;16.13;11.50;;;9.80;99.90;;;;;;2613511;54;20153;-74
2023/05/30 04:00:45;;;;;;;13.07;11.87;;;9.90;99.90;;;;;;2612917;54;20138;-74
2023/05/30 04:06:34;;;;;;;17.67;11.57;;;9.90;99.90;;;;;;2614519;54;20177;-73
2023/05/30 04:12:21;;;;;;;19.63;11.07;;;10.10;99.90;;;;;;2614194;54;20507;-74
2023/05/30 04:18:10;;;;;;;13.20;11.80;;;10.10;99.90;;;;;;2614748;54;20142;-74
2023/05/30 04:23:57;;;;;;;18.37;12.87;;;10.30;99.90;;;;;;2614944;54;20364;-74
2023/05/30 04:27:00;;;;;;;21.80;12.60;;;10.20;99.90;;;;;;2613363;54;20988;-74
2023/05/30 04:29:26;;;;;;;21.60;11.30;;;10.20;99.90;;;;;;2614980;54;20161;-75
2023/05/30 04:35:13;;;;;;;16.83;13.13;;;10.40;99.90;;;;;;2614060;54;20391;-74
2023/05/30 04:41:02;;;;;;;20.40;12.10;;;10.30;99.90;;;;;;2614987;54;20239;-73
2023/05/30 04:46:50;;;;;;;15.73;13.10;;;10.30;99.90;;;;;;2613472;54;20394;-73
2023/05/30 04:52:38;;;;;;;18.37;11.60;;;10.40;99.90;;;;;;2614873;54;20411;-73
2023/05/30 04:58:26;;;;;;;13.30;12.30;;;10.50;99.90;;;;;;2613523;54;20150;-73
2023/05/30 05:04:14;;;;;;;16.43;14.37;;;10.60;99.90;;;;;;2614410;39;20957;-73
2023/05/30 05:10:02;;;;;;;14.50;13.00;;;10.70;99.90;;;;;;2614432;54;20170;-74
2023/05/30 05:15:50;;;;;;;14.23;13.03;;;11.00;99.90;;;;;;2616110;39;20511;-76
2023/05/30 05:21:38;;;;;;;15.57;13.77;;;11.00;99.90;;;;;;2613479;54;20383;-75
2023/05/30 05:31:33;;;;;;;16.50;14.30;;;11.00;99.90;;;;;;2612687;54;20431;-75
2023/05/30 05:37:20;;;;;;;15.97;14.37;;;11.40;99.90;;;;;;2613598;39;20870;-73
2023/05/30 05:43:08;;;;;;;16.07;14.57;;;11.70;99.90;;;;;;2612742;54;20166;-74
2023/05/30 05:48:55;;;;;;;18.50;14.20;;;12.20;99.90;;;;;;2614272;54;20161;-74
2023/05/30 05:54:43;;;;;;;15.90;14.57;;;12.20;99.90;;;;;;2614020;54;20130;-74
2023/05/30 06:00:34;;;;;;;16.17;14.70;;;12.10;99.90;;;;;;2612819;54;20151;-75
2023/05/30 06:06:22;;;;;;;17.47;15.33;;;11.70;99.90;;;;;;2613987;54;20363;-73
2023/05/30 06:12:10;;;;;;;17.10;15.80;;;12.90;99.90;;;;;;2614148;54;20130;-74
2023/05/30 06:17:57;;;;;;;19.37;14.47;;;13.10;99.90;;;;;;2614186;54;20247;-74
2023/05/30 06:23:45;;;;;;;17.90;16.30;;;13.30;99.90;;;;;;2612210;54;20143;-74
2023/05/30 06:27:00;;;;;;;17.97;16.30;;;13.40;99.90;;;;;;2611458;54;20483;-73
2023/05/30 06:29:27;;;;;;;19.80;18.20;;;13.50;99.90;;;;;;2614028;54;20206;-74
2023/05/30 06:35:15;;;;;;;18.80;17.17;;;14.50;99.90;;;;;;2614389;54;20943;-74
2023/05/30 06:41:03;;;;;;;18.03;16.87;;;14.90;99.70;;;;;;2614273;54;20170;-73
2023/05/30 06:46:51;;;;;;;18.93;17.20;;;14.00;99.90;;;;;;2612323;54;20134;-75
2023/05/30 06:52:39;;;;;;;20.40;18.57;;;14.20;99.90;;;;;;2612456;39;20788;-74
2023/05/30 06:58:27;;;;;;;19.67;17.37;;;14.70;90.70;;;;;;2613260;54;20130;-75
2023/05/30 07:04:15;;;;;;;19.97;18.23;;;14.20;92.00;;;;;;2612357;46;20142;-74
2023/05/30 07:10:03;;;;;;;19.20;17.60;;;14.10;94.20;;;;;;2612454;54;20142;-74
2023/05/30 07:15:50;;;;;;;17.37;16.23;;;14.40;94.80;;;;;;2613670;54;20842;-75
2023/05/30 07:21:38;;;;;;;20.73;19.10;;;14.10;99.50;;;;;;2614154;54;20134;-76
2023/05/30 07:31:31;;;;;;;20.50;19.00;;;15.10;67.40;;;;;;2613288;54;20395;-75
2023/05/30 07:37:19;;;;;;;19.70;18.30;;;14.80;72.60;;;;;;2612842;54;20387;-74
2023/05/30 07:43:07;;;;;;;19.20;17.63;;;14.60;78.00;;;;;;2612987;54;20169;-75
2023/05/30 07:48:55;;;;;;;18.47;17.27;;;15.00;74.90;;;;;;2612373;54;20403;-76
2023/05/30 07:54:42;;;;;;;19.60;18.17;;;15.70;52.30;;;;;;2611818;54;20157;-74
2023/05/30 08:00:30;;;;;;;20.03;18.73;;;16.70;41.70;;;;;;2611883;54;20130;-75
2023/05/30 08:06:19;;;;;;;19.93;18.07;;;16.60;37.80;;;;;;2613893;54;20133;-75
2023/05/30 08:12:07;;;;;;;18.80;17.57;;;16.30;41.80;;;;;;2612824;54;20391;-75
2023/05/30 08:17:56;;;;;;;18.60;17.30;;;16.40;35.40;;;;;;2612518;54;20434;-75
2023/05/30 08:23:45;;;;;;;22.83;20.67;;;16.60;30.20;;;;;;2613176;54;20423;-75
2023/05/30 08:29:43;;;;;;;19.60;18.20;;;16.80;27.40;;;;;;2610563;54;20536;-74
2023/05/30 08:35:31;;;;;;;19.23;17.90;;;16.80;26.70;;;;;;2611606;54;20973;-74
2023/05/30 08:41:17;;;;;;;20.47;19.00;;;17.00;29.10;;;;;;2612366;54;20134;-74
2023/05/30 08:47:08;;;;;;;20.20;18.60;;;17.20;25.20;;;;;;2612590;54;20153;-75
2023/05/30 08:50:32;;;;;;;20.40;19.00;;;17.70;24.50;;;;;;2612771;54;20427;-75
2023/05/30 09:02:57;;;;;;;20.53;19.10;;;17.30;24.20;;;;;;2612389;54;20413;-75
2023/05/30 09:08:46;;;;;;;19.40;18.17;;;17.90;21.50;;;;;;2613567;54;20395;-75
2023/05/30 09:14:34;;;;;;;18.90;17.67;;;17.70;21.50;;;;;;2613526;54;20406;-75
2023/05/30 09:20:22;;;;;;;19.73;18.53;;;18.10;20.80;;;;;;2613938;54;20646;-75
2023/05/30 09:26:14;;;;;;;20.30;19.00;;;18.10;18.40;;;;;;2613914;31;20885;-74
2023/05/30 09:32:03;;;;;;;19.70;18.50;;;18.90;18.00;;;;;;2612066;54;20972;-75
2023/05/30 09:35:15;;;;;;;21.20;19.63;;;18.10;15.30;;;;;;2613818;54;20427;-76
2023/05/30 09:41:03;;;;;;;20.87;19.50;;;18.80;15.50;;;;;;2613920;54;20427;-75
2023/05/30 09:43:53;;;;;;;19.50;18.30;;;18.60;14.40;;;;;;2613614;54;20410;-75
2023/05/30 09:46:21;;;;;;;22.33;20.17;;;18.90;16.90;;;;;;2613279;54;20424;-75
2023/05/30 09:52:09;;;;;;;20.63;19.13;;;19.30;14.70;;;;;;2606454;54;20398;-73
2023/05/30 09:54:47;;;;;;;19.00;17.50;;;19.70;14.40;;;;;;2609117;54;20420;-75
2023/05/30 09:57:12;;;;;;;18.77;17.37;;;19.60;11.10;;;;;;2612725;31;20608;-75
2023/05/30 10:03:00;;;;;;;19.10;17.60;;;19.90;13.70;;;;;;2612077;54;20170;-76
2023/05/30 10:08:48;;;;;;;19.13;17.60;;;19.60;14.40;;;;;;2613566;54;20169;-75
2023/05/30 10:14:37;;;;;;;18.20;17.00;;;19.90;10.10;;;;;;2612660;54;20250;-74
2023/05/30 10:20:27;;;;;;;20.37;18.33;;;19.30;12.50;;;;;;2610911;54;20394;-75
2023/05/30 10:26:16;;;;;;;19.97;18.00;;;20.50;10.10;;;;;;2611214;54;20418;-75
2023/05/30 10:35:29;;;;;;;20.27;18.30;;;20.00;11.50;;;;;;2609986;54;20427;-74
2023/05/30 10:54:21;;;;;;;18.77;17.17;;;20.10;9.60;;;;;;2611164;54;20418;-75
2023/05/30 11:06:26;;;;;;;22.10;20.20;;;21.00;6.90;;;;;;2613464;54;20418;-75
2023/05/30 11:25:28;;;;;;;19.47;17.50;;;21.40;5.70;;;;;;2609997;54;20419;-74
2023/05/30 11:35:16;;;;;;;18.90;17.10;;;21.20;7.70;;;;;;2608266;54;20407;-75
2023/05/30 11:38:28;;;;;;;18.10;16.47;;;21.20;5.80;;;;;;2607249;54;20399;-74
2023/05/30 11:40:54;;;;;;;19.00;17.03;;;21.30;3.50;;;;;;2611795;39;20482;-75
2023/05/30 11:46:41;;;;;;;18.07;16.57;;;21.50;3.00;;;;;;2611195;54;21072;-74
2023/05/30 11:52:29;;;;;;;17.63;16.13;;;21.20;4.40;;;;;;2611336;54;20390;-73
2023/05/30 11:58:18;;;;;;;16.57;15.27;;;21.80;4.80;;;;;;2612213;54;20130;-76
2023/05/30 12:04:06;;;;;;;17.90;16.23;;;22.30;1.00;;;;;;2610149;54;20405;-74
2023/05/30 12:09:54;;;;;;;18.70;16.87;;;21.70;2.60;;;;;;2613391;54;20439;-75
2023/05/30 12:15:42;;;;;;;17.57;16.30;;;21.40;2.20;;;;;;2614114;54;20535;-74
2023/05/30 12:21:31;;;;;;;17.83;16.20;;;21.90;3.20;;;;;;2614727;54;20535;-74
2023/05/30 12:27:25;;;;;;;17.63;15.87;;;22.20;3.70;;;;;;2609195;54;20435;-74
2023/05/30 12:30:46;;;;;;;17.80;16.10;;;22.10;1.90;;;;;;2610661;54;20426;-74
2023/05/30 12:33:16;;;;;;;17.90;16.30;;;22.00;2.30;;;;;;2609998;47;20490;-73
2023/05/30 12:39:08;;;;;;;16.47;15.20;;;21.60;3.40;;;;;;2613549;54;20438;-74
2023/05/30 12:45:03;;;;;;;16.93;15.63;;;23.00;2.60;;;;;;2609468;54;20570;-73
2023/05/30 12:50:50;;;;;;;17.50;16.00;;;22.50;3.00;;;;;;2607844;54;20415;-75
2023/05/30 12:56:38;;;;;;;17.43;15.80;;;22.30;2.90;;;;;;2611419;54;20158;-74
2023/05/30 13:02:26;;;;;;;17.10;15.60;;;23.20;4.40;;;;;;2613014;54;20135;-74
2023/05/30 13:08:14;;;;;;;17.80;16.00;;;22.40;3.00;;;;;;2614361;39;20570;-75
2023/05/30 13:14:02;;;;;;;16.77;15.40;;;22.20;2.60;;;;;;2610988;54;20135;-75
2023/05/30 13:19:50;;;;;;;17.00;15.63;;;22.70;4.80;;;;;;2612151;54;20403;-74
2023/05/30 13:25:38;;;;;;;16.77;15.00;;;21.80;3.90;;;;;;2613573;54;20138;-74
2023/05/30 13:35:16;;;;;;;16.20;15.00;;;22.70;1.60;;;;;;2613508;54;20387;-75
2023/05/30 13:41:03;;;;;;;16.03;14.73;;;22.80;5.10;;;;;;2613918;54;20471;-74
2023/05/30 13:46:52;;;;;;;16.53;15.27;;;23.30;3.10;;;;;;2613303;54;20186;-74
2023/05/30 13:49:57;;;;;;;16.67;15.00;;;22.90;2.20;;;;;;2613957;54;20423;-75
2023/05/30 13:52:23;;;;;;;16.43;15.20;;;23.10;3.40;;;;;;2608063;54;21004;-74
2023/05/30 13:58:10;;;;;;;16.20;15.00;;;22.70;3.20;;;;;;2611496;39;20525;-75
2023/05/30 14:03:58;;;;;;;16.50;15.20;;;23.30;3.20;;;;;;2613848;39;20613;-74
2023/05/30 14:09:46;;;;;;;16.13;14.77;;;22.80;3.40;;;;;;2611256;54;21344;-75
2023/05/30 14:15:34;;;;;;;16.10;15.00;;;22.80;3.20;;;;;;2613427;54;20235;-76
2023/05/30 14:21:22;;;;;;;15.97;14.60;;;23.40;3.00;;;;;;2610816;54;20980;-76
2023/05/30 14:27:12;;;;;;;15.50;14.10;;;23.20;3.60;;;;;;2610576;54;20134;-75
2023/05/30 14:33:00;;;;;;;16.20;14.90;;;22.70;3.90;;;;;;2608954;54;20447;-76
2023/05/30 14:38:48;;;;;;;15.50;14.17;;;23.20;3.80;;;;;;2608573;46;20562;-75
2023/05/30 14:44:35;;;;;;;19.80;14.57;;;22.80;2.80;;;;;;2608785;54;20182;-74
2023/05/30 14:50:24;;;;;;;16.00;14.60;;;22.90;5.30;;;;;;2609447;54;20183;-75
2023/05/30 14:56:11;;;;;;;15.40;14.10;;;22.90;4.80;;;;;;2610047;39;20612;-76
2023/05/30 15:02:00;;;;;;;15.33;14.33;;;23.50;5.20;;;;;;2612075;54;20254;-73
2023/05/30 15:07:49;;;;;;;15.33;14.23;;;23.10;5.00;;;;;;2612675;39;20755;-74
2023/05/30 15:13:38;;;;;;;14.60;13.50;;;22.70;4.30;;;;;;2611385;54;20449;-74
2023/05/30 15:19:26;;;;;;;14.90;13.80;;;22.50;5.30;;;;;;2609339;39;20820;-74
2023/05/30 15:25:21;;;;;;;14.50;13.20;;;22.50;5.10;;;;;;2612144;54;20137;-74
2023/05/30 15:35:17;;;;;;;15.37;14.47;;;23.80;4.10;;;;;;2608530;54;21258;-74
2023/05/30 15:41:06;;;;;;;14.00;13.00;;;22.70;4.70;;;;;;2609257;54;20445;-75
2023/05/30 15:46:57;;;;;;;15.13;14.03;;;22.90;4.90;;;;;;2608530;54;22058;-76
2023/05/30 15:52:44;;;;;;;15.37;14.37;;;23.50;4.90;;;;;;2610306;54;20574;-75
2023/05/30 15:58:31;;;;;;;15.53;14.23;;;23.00;4.90;;;;;;2612587;54;20168;-75
2023/05/30 16:04:19;;;;;;;16.77;15.33;;;22.90;4.80;;;;;;2614206;54;20135;-75
2023/05/30 16:10:07;;;;;;;15.20;14.13;;;22.80;5.50;;;;;;2610545;54;20251;-76
2023/05/30 16:15:55;;;;;;;15.43;14.63;;;23.70;5.00;;;;;;2613192;54;20410;-75
2023/05/30 16:21:43;;;;;;;15.93;14.83;;;24.00;3.30;;;;;;2613660;39;20531;-75
2023/05/30 16:27:31;;;;;;;14.47;13.17;;;22.00;5.80;;;;;;2614200;54;20170;-75
2023/05/30 16:30:47;;;;;;;14.63;13.73;;;23.10;6.90;;;;;;2612493;54;21287;-73
2023/05/30 16:33:12;;;;;;;15.60;14.70;;;22.70;5.90;;;;;;2614547;54;20151;-74
2023/05/30 16:39:00;;;;;;;17.30;16.00;;;21.80;7.00;;;;;;2614338;54;20142;-75
2023/05/30 16:44:48;;;;;;;16.90;15.80;;;22.10;7.60;;;;;;2612478;54;20130;-75
2023/05/30 16:50:38;;;;;;;15.63;14.20;;;22.50;6.70;;;;;;2614442;54;20227;-75
2023/05/30 16:56:26;;;;;;;15.30;14.10;;;21.70;11.30;;;;;;2614485;54;20383;-77
2023/05/30 17:02:13;;;;;;;16.00;14.80;;;21.50;14.80;;;;;;2612283;54;20170;-75
2023/05/30 17:08:01;;;;;;;15.20;14.30;;;20.30;19.00;;;;;;2613424;54;20161;-75
2023/05/30 17:13:49;;;;;;;16.37;15.27;;;20.70;22.00;;;;;;2614292;54;20123;-75
2023/05/30 17:19:37;;;;;;;19.87;17.83;;;20.70;23.80;;;;;;2613300;54;21322;-75
2023/05/30 17:25:31;;;;;;;17.40;16.50;;;19.90;27.40;;;;;;2614185;54;20162;-76
2023/05/30 17:35:14;;;;;;;18.50;17.40;;;19.90;33.10;;;;;;2613099;54;20488;-76
2023/05/30 17:41:02;;;;;;;15.83;14.63;;;19.70;38.10;;;;;;2613744;46;20430;-74
2023/05/30 17:46:50;;;;;;;18.67;17.57;;;19.40;43.30;;;;;;2614125;54;20142;-75
2023/05/30 17:52:38;;;;;;;19.17;17.70;;;19.00;49.30;;;;;;2613770;54;20135;-75
2023/05/30 17:58:26;;;;;;;18.30;17.20;;;18.80;56.10;;;;;;2611452;54;20158;-74
2023/05/30 18:04:14;;;;;;;18.10;16.77;;;18.50;64.10;;;;;;2610401;54;20467;-75
2023/05/30 18:10:01;;;;;;;18.00;17.07;;;18.30;77.50;;;;;;2612836;54;20612;-75
2023/05/30 18:15:49;;;;;;;17.20;16.20;;;18.30;80.70;;;;;;2611698;54;20127;-75
2023/05/30 18:21:37;;;;;;;18.93;17.37;;;18.00;87.10;;;;;;2614003;54;20280;-76
2023/05/30 18:27:26;;;;;;;18.10;16.83;;;17.70;93.20;;;;;;2611098;54;20996;-76
2023/05/30 18:33:10;;;;;;;17.53;16.40;;;17.40;98.50;;;;;;2609422;54;20395;-76
2023/05/30 18:38:59;;;;;;;18.00;16.80;;;17.30;99.90;;;;;;2613007;54;20134;-75
2023/05/30 18:44:48;;;;;;;18.50;17.33;;;17.10;99.90;;;;;;2613143;54;20407;-76
2023/05/30 18:50:36;;;;;;;18.90;17.60;;;17.00;99.90;;;;;;2613496;54;20512;-74
2023/05/30 18:56:25;;;;;;;16.70;15.60;;;16.80;99.90;;;;;;2613432;54;20430;-75
2023/05/30 19:02:13;;;;;;;18.27;16.90;;;16.60;99.90;;;;;;2614013;54;20398;-75
2023/05/30 19:08:01;;;;;;;16.87;15.87;;;16.40;99.90;;;;;;2613851;54;20134;-74
2023/05/30 19:13:48;;;;;;;17.87;16.57;;;16.30;99.90;;;;;;2613573;46;20266;-75
2023/05/30 19:19:36;;;;;;;17.83;16.63;;;16.10;99.90;;;;;;2613443;54;20130;-74
2023/05/30 19:25:25;;;;;;;19.70;18.30;;;16.00;99.90;;;;;;2613476;54;20182;-74
2023/05/30 19:35:15;;;;;;;17.70;16.53;;;15.70;99.90;;;;;;2612777;54;20451;-75
2023/05/30 19:41:08;;;;;;;17.33;16.20;;;15.60;99.90;;;;;;2612295;54;20933;-74
2023/05/30 19:44:11;;;;;;;17.97;16.87;;;15.50;99.90;;;;;;2613492;54;20533;-74
2023/05/30 19:46:38;;;;;;;16.40;15.00;;;15.50;99.90;;;;;;2613070;54;20398;-75
2023/05/30 19:52:26;;;;;;;16.40;15.20;;;15.30;99.90;;;;;;2613025;54;20411;-75
2023/05/30 19:58:17;;;;;;;17.67;16.07;;;15.20;99.90;;;;;;2612716;54;20135;-74
2023/05/30 20:04:04;;;;;;;16.43;15.13;;;15.10;99.90;;;;;;2613219;54;20880;-75
2023/05/30 20:09:52;;;;;;;14.67;13.67;;;15.00;99.90;;;;;;2614564;39;20594;-75
2023/05/30 20:15:41;;;;;;;14.57;13.50;;;14.90;99.90;;;;;;2611294;54;20138;-74
2023/05/30 20:21:28;;;;;;;14.27;13.27;;;14.80;99.90;;;;;;2611036;54;20370;-76
2023/05/30 20:27:19;;;;;;;14.17;13.17;;;14.70;99.90;;;;;;2611164;46;20182;-77
2023/05/30 20:33:09;;;;;;;16.20;14.80;;;14.60;99.90;;;;;;2611651;39;20827;-71
2023/05/30 20:38:56;;;;;;;13.80;12.90;;;14.60;99.90;;;;;;2613891;54;21488;-70
2023/05/30 20:44:45;;;;;;;13.97;12.90;;;14.60;99.90;;;;;;2614200;54;20142;-70
2023/05/30 20:50:32;;;;;;;13.87;12.67;;;14.40;99.90;;;;;;2613882;54;20570;-70
2023/05/30 20:56:20;;;;;;;12.47;11.57;;;14.40;99.90;;;;;;2614775;54;20126;-70
2023/05/30 21:02:08;;;;;;;13.90;12.57;;;14.30;99.90;;;;;;2614566;54;20129;-72
2023/05/30 21:07:55;;;;;;;12.40;11.50;;;14.20;99.90;;;;;;2612720;54;20130;-71
2023/05/30 21:13:44;;;;;;;13.73;12.83;;;14.20;99.90;;;;;;2614671;54;20158;-70
2023/05/30 21:19:31;;;;;;;13.60;12.50;;;14.10;99.90;;;;;;2613638;54;20456;-71
2023/05/30 21:25:19;;;;;;;13.70;12.37;;;14.10;99.90;;;;;;2612775;54;20146;-72
2023/05/30 21:35:16;;;;;;;13.03;11.83;;;14.00;99.90;;;;;;2613227;54;20367;-71
2023/05/30 21:41:03;;;;;;;13.60;12.40;;;14.00;99.90;;;;;;2614638;54;20418;-71
2023/05/30 21:46:51;;;;;;;13.17;12.13;;;13.90;99.90;;;;;;2613313;54;20255;-71
2023/05/30 21:52:39;;;;;;;15.57;13.93;;;13.90;99.90;;;;;;2614880;54;20142;-71
2023/05/30 21:58:27;;;;;;;13.20;12.03;;;13.80;99.90;;;;;;2613479;39;20650;-70
2023/05/30 22:04:14;;;;;;;12.73;11.73;;;13.70;99.90;;;;;;2614228;54;20166;-69
2023/05/30 22:10:02;;;;;;;14.10;13.00;;;13.60;99.90;;;;;;2614101;54;20165;-70
2023/05/30 22:15:50;;;;;;;14.47;13.17;;;13.40;99.90;;;;;;2614387;54;20146;-71
2023/05/30 22:21:37;;;;;;;16.07;14.77;;;13.50;99.90;;;;;;2613643;54;20134;-70
2023/05/30 22:27:25;;;;;;;15.03;13.63;;;13.40;99.90;;;;;;2611974;39;20554;-70
2023/05/30 22:30:46;;;;;;;16.27;14.47;;;13.40;99.90;;;;;;2613915;54;20403;-70
2023/05/30 22:33:12;;;;;;;16.60;13.30;;;13.30;99.90;;;;;;2612673;39;20330;-70
2023/05/30 22:38:59;;;;;;;15.97;14.57;;;13.30;99.90;;;;;;2614750;46;20154;-70
2023/05/30 22:44:47;;;;;;;13.77;12.47;;;13.30;99.90;;;;;;2613246;54;20146;-71
2023/05/30 22:50:35;;;;;;;16.07;13.33;;;13.20;99.90;;;;;;2612562;54;20151;-70
2023/05/30 22:56:23;;;;;;;14.93;13.43;;;13.20;99.90;;;;;;2612540;54;20146;-71
2023/05/30 23:02:13;;;;;;;15.90;12.60;;;13.10;99.90;;;;;;2613780;54;20189;-70
2023/05/30 23:08:01;;;;;;;15.23;13.53;;;13.00;99.90;;;;;;2611820;54;20403;-69
2023/05/30 23:13:49;;;;;;;15.07;13.50;;;12.90;99.90;;;;;;2614019;54;20162;-71
2023/05/30 23:19:37;;;;;;;16.10;14.50;;;12.80;99.90;;;;;;2612957;54;20167;-71
2023/05/30 23:25:25;;;;;;;15.40;13.80;;;12.80;99.90;;;;;;2613522;54;20135;-70
2023/05/30 23:35:16;;;;;;;18.10;14.87;;;12.70;99.90;;;;;;2612437;54;20454;-70
2023/05/30 23:41:03;;;;;;;14.83;13.37;;;12.60;99.90;;;;;;2613815;54;20387;-72
2023/05/30 23:46:51;;;;;;;16.27;14.67;;;12.50;99.90;;;;;;2613803;39;20612;-71
2023/05/30 23:52:39;;;;;;;17.83;14.93;;;12.60;99.90;;;;;;2612140;54;20154;-71
2023/05/30 23:58:26;;;;;;;17.50;15.60;;;12.60;99.90;;;;;;2613382;54;20126;-71
